createdAt,value
2022-12-25T00:01:10.923Z,45.70
2022-12-25T00:03:41.399Z,45.80
2022-12-25T00:06:08.589Z,45.86
2022-12-25T00:08:38.781Z,45.94
2022-12-25T00:11:08.479Z,46.10
2022-12-25T00:13:35.577Z,46.20
2022-12-25T00:16:10.467Z,45.95
2022-12-25T00:18:38.370Z,45.83
2022-12-25T00:21:07.352Z,46.41
2022-12-25T00:23:36.886Z,46.07
2022-12-25T00:26:09.059Z,46.59
2022-12-25T00:28:39.097Z,46.54
2022-12-25T00:31:10.642Z,46.31
2022-12-25T00:33:38.937Z,46.43
2022-12-25T00:36:11.234Z,46.50
2022-12-25T00:38:48.403Z,46.61
2022-12-25T00:41:25.196Z,46.49
2022-12-25T00:43:54.950Z,46.61
2022-12-25T00:46:26.462Z,46.84
2022-12-25T00:49:04.340Z,46.80
2022-12-25T00:51:43.945Z,46.73
2022-12-25T00:54:16.606Z,47.02
2022-12-25T00:56:45.199Z,47.01
2022-12-25T01:03:01.685Z,47.02
2022-12-25T01:05:45.079Z,47.14
2022-12-25T01:08:15.947Z,47.18
2022-12-25T01:11:21.160Z,47.41
2022-12-25T01:14:17.683Z,47.31
2022-12-25T01:17:12.176Z,47.32
2022-12-25T01:19:48.759Z,47.73
2022-12-25T01:22:22.002Z,47.67
2022-12-25T01:25:04.331Z,47.25
2022-12-25T01:27:38.839Z,47.38
2022-12-25T01:30:20.738Z,47.86
2022-12-25T01:32:57.155Z,46.72
2022-12-25T01:35:36.653Z,47.45
2022-12-25T01:38:19.098Z,47.24
2022-12-25T01:40:56.432Z,47.44
2022-12-25T01:43:35.742Z,47.63
2022-12-25T01:46:11.586Z,47.88
2022-12-25T01:48:40.371Z,47.73
2022-12-25T01:54:41.609Z,47.51
2022-12-25T01:57:29.125Z,47.54
2022-12-25T02:00:10.612Z,47.42
2022-12-25T02:02:46.871Z,47.91
2022-12-25T02:05:21.165Z,48.04
2022-12-25T02:08:01.721Z,47.74
2022-12-25T02:10:36.825Z,47.76
2022-12-25T02:13:08.985Z,47.89
2022-12-25T02:16:23.176Z,47.89
2022-12-25T02:19:00.996Z,48.05
2022-12-25T02:21:54.608Z,47.96
2022-12-25T02:24:46.904Z,48.24
2022-12-25T02:27:22.258Z,48.43
2022-12-25T02:30:08.139Z,48.33
2022-12-25T02:32:39.634Z,47.91
2022-12-25T02:35:22.325Z,47.68
2022-12-25T02:37:55.366Z,47.54
2022-12-25T02:40:41.750Z,48.20
2022-12-25T02:43:39.668Z,48.45
2022-12-25T02:46:34.849Z,48.60
2022-12-25T02:49:39.603Z,48.33
2022-12-25T02:52:36.075Z,47.53
2022-12-25T02:55:29.094Z,46.89
2022-12-25T02:58:17.288Z,48.01
2022-12-25T03:01:12.304Z,47.92
2022-12-25T03:04:04.210Z,47.99
2022-12-25T03:06:52.828Z,47.92
2022-12-25T03:09:50.638Z,48.19
2022-12-25T03:12:36.793Z,48.27
2022-12-25T03:15:28.000Z,47.93
2022-12-25T03:17:58.444Z,47.94
2022-12-25T03:20:51.000Z,48.11
2022-12-25T03:23:42.300Z,48.30
2022-12-25T03:26:39.073Z,48.42
2022-12-25T03:29:20.009Z,47.84
2022-12-25T03:32:01.387Z,48.18
2022-12-25T03:34:55.206Z,48.00
2022-12-25T03:38:00.879Z,47.67
2022-12-25T03:40:46.838Z,47.91
2022-12-25T03:43:41.832Z,47.93
2022-12-25T03:46:33.221Z,47.81
2022-12-25T03:49:29.611Z,47.67
2022-12-25T03:52:17.529Z,47.64
2022-12-25T03:55:08.275Z,47.47
2022-12-25T03:57:54.922Z,46.81
2022-12-25T04:00:50.960Z,47.01
2022-12-25T04:03:39.536Z,46.33
2022-12-25T04:06:26.966Z,46.76
2022-12-25T04:09:16.831Z,46.79
2022-12-25T04:12:03.794Z,46.83
2022-12-25T04:14:59.159Z,46.92
2022-12-25T04:17:46.468Z,47.00
2022-12-25T04:20:35.377Z,46.89
2022-12-25T04:23:22.603Z,46.90
2022-12-25T04:26:11.606Z,46.56
2022-12-25T04:29:00.039Z,46.94
2022-12-25T04:31:49.831Z,47.17
2022-12-25T04:34:38.825Z,46.86
2022-12-25T04:37:07.128Z,46.96
2022-12-25T04:39:39.164Z,47.02
2022-12-25T04:42:08.559Z,46.70
2022-12-25T04:44:38.063Z,47.15
2022-12-25T04:47:11.639Z,47.51
2022-12-25T04:49:49.963Z,47.20
2022-12-25T04:52:18.827Z,47.22
2022-12-25T04:54:52.944Z,47.14
2022-12-25T04:57:26.243Z,47.25
2022-12-25T05:00:01.158Z,47.20
2022-12-25T05:02:34.531Z,47.19
2022-12-25T05:05:11.101Z,47.52
2022-12-25T05:07:39.932Z,47.64
2022-12-25T05:10:10.625Z,47.67
2022-12-25T05:12:41.820Z,48.18
2022-12-25T05:15:14.596Z,47.84
2022-12-25T05:17:43.162Z,48.06
2022-12-25T05:20:10.341Z,47.61
2022-12-25T05:22:43.109Z,47.61
2022-12-25T05:25:13.325Z,47.22
2022-12-25T05:27:43.832Z,47.20
2022-12-25T05:30:15.371Z,47.53
2022-12-25T05:32:52.926Z,47.08
2022-12-25T05:35:21.121Z,46.97
2022-12-25T05:37:49.480Z,47.38
2022-12-25T05:40:17.261Z,47.73
2022-12-25T05:42:49.567Z,47.64
2022-12-25T05:45:21.055Z,47.83
2022-12-25T05:47:53.945Z,48.04
2022-12-25T05:50:21.218Z,47.96
2022-12-25T05:52:49.599Z,48.53
2022-12-25T05:55:18.605Z,47.64
2022-12-25T05:57:48.212Z,47.75
2022-12-25T06:00:20.437Z,47.75
2022-12-25T06:02:52.114Z,48.08
2022-12-25T06:05:19.415Z,48.23
2022-12-25T06:07:47.317Z,48.16
2022-12-25T06:10:15.032Z,48.09
2022-12-25T06:12:47.201Z,48.35
2022-12-25T06:15:18.890Z,48.15
2022-12-25T06:17:49.081Z,48.20
2022-12-25T06:20:21.963Z,47.97
2022-12-25T06:22:56.860Z,48.40
2022-12-25T06:25:26.455Z,48.19
2022-12-25T06:28:00.594Z,47.77
2022-12-25T06:30:33.803Z,48.52
2022-12-25T06:33:02.498Z,48.29
2022-12-25T06:35:36.145Z,48.26
2022-12-25T06:38:11.505Z,48.56
2022-12-25T06:40:41.852Z,48.74
2022-12-25T06:43:14.446Z,48.68
2022-12-25T06:45:41.802Z,48.68
2022-12-25T06:48:12.856Z,48.78
2022-12-25T06:50:45.054Z,48.67
2022-12-25T06:53:12.883Z,48.48
2022-12-25T06:55:40.776Z,49.00
2022-12-25T06:58:17.272Z,48.86
2022-12-25T07:00:44.788Z,48.65
2022-12-25T07:03:19.829Z,48.83
2022-12-25T07:05:55.692Z,48.65
2022-12-25T07:08:27.565Z,48.86
2022-12-25T07:13:51.831Z,48.65
2022-12-25T07:16:20.715Z,48.92
2022-12-25T07:18:48.389Z,49.15
2022-12-25T07:21:22.813Z,48.72
2022-12-25T07:23:57.397Z,48.88
2022-12-25T07:26:27.631Z,48.78
2022-12-25T07:28:56.212Z,48.78
2022-12-25T07:31:32.183Z,48.70
2022-12-25T07:34:08.332Z,49.18
2022-12-25T07:36:40.693Z,48.70
2022-12-25T07:39:26.489Z,47.81
2022-12-25T07:41:57.741Z,47.70
2022-12-25T07:44:27.582Z,48.22
2022-12-25T07:46:54.559Z,49.06
2022-12-25T07:49:21.620Z,48.35
2022-12-25T07:51:50.893Z,48.36
2022-12-25T07:54:18.796Z,48.51
2022-12-25T07:56:45.842Z,48.44
2022-12-25T07:59:46.085Z,48.84
2022-12-25T08:02:13.347Z,49.00
2022-12-25T08:04:42.046Z,49.54
2022-12-25T08:07:09.088Z,48.80
2022-12-25T08:09:36.188Z,47.99
2022-12-25T08:12:03.219Z,47.91
2022-12-25T08:14:30.495Z,47.88
2022-12-25T08:16:59.985Z,47.84
2022-12-25T08:19:29.501Z,48.36
2022-12-25T08:22:04.196Z,47.64
2022-12-25T08:24:38.267Z,47.66
2022-12-25T08:27:08.796Z,47.67
2022-12-25T08:29:46.576Z,47.76
2022-12-25T08:32:16.756Z,47.70
2022-12-25T08:34:44.142Z,47.53
2022-12-25T08:37:13.955Z,48.01
2022-12-25T08:39:43.797Z,48.26
2022-12-25T08:42:13.540Z,47.53
2022-12-25T08:44:43.702Z,47.25
2022-12-25T08:47:13.317Z,47.13
2022-12-25T08:49:40.520Z,46.90
2022-12-25T08:52:08.108Z,47.34
2022-12-25T08:54:36.704Z,46.45
2022-12-25T08:57:04.372Z,46.72
2022-12-25T08:59:34.031Z,46.74
2022-12-25T09:02:05.305Z,49.18
2022-12-25T09:04:38.075Z,46.68
2022-12-25T09:07:05.274Z,45.64
2022-12-25T09:09:35.120Z,45.00
2022-12-25T09:12:05.314Z,45.11
2022-12-25T09:14:32.273Z,43.95
2022-12-25T09:17:07.652Z,43.38
2022-12-25T09:19:37.603Z,42.81
2022-12-25T09:22:08.546Z,42.21
2022-12-25T09:24:39.841Z,40.92
2022-12-25T09:27:10.585Z,39.70
2022-12-25T09:29:44.103Z,38.81
2022-12-25T09:32:11.627Z,38.44
2022-12-25T09:34:43.035Z,38.19
2022-12-25T09:37:13.129Z,37.52
2022-12-25T09:39:49.880Z,37.18
2022-12-25T09:42:29.630Z,36.28
2022-12-25T09:44:58.721Z,35.91
2022-12-25T09:47:34.529Z,34.47
2022-12-25T09:50:01.887Z,34.76
2022-12-25T09:52:40.025Z,33.88
2022-12-25T09:55:21.279Z,33.11
2022-12-25T09:58:04.379Z,33.02
2022-12-25T10:00:35.534Z,32.80
2022-12-25T10:03:12.513Z,32.54
2022-12-25T10:06:07.940Z,32.43
2022-12-25T10:08:42.485Z,31.49
2022-12-25T10:11:37.254Z,30.35
2022-12-25T10:14:19.157Z,30.70
2022-12-25T10:17:17.444Z,30.07
2022-12-25T10:19:47.635Z,29.58
2022-12-25T10:22:22.774Z,29.42
2022-12-25T10:24:51.642Z,29.63
2022-12-25T10:27:45.305Z,28.84
2022-12-25T10:30:18.642Z,28.21
2022-12-25T10:32:46.569Z,27.45
2022-12-25T10:35:22.096Z,27.41
2022-12-25T10:37:57.624Z,26.47
2022-12-25T10:40:42.328Z,25.69
2022-12-25T10:43:26.664Z,26.02
2022-12-25T10:45:54.006Z,25.14
2022-12-25T10:48:30.885Z,24.97
2022-12-25T10:51:03.994Z,24.58
2022-12-25T10:53:38.292Z,24.42
2022-12-25T10:56:08.745Z,23.09
2022-12-25T10:58:38.431Z,22.49
2022-12-25T11:01:08.852Z,22.79
2022-12-25T11:03:42.706Z,22.71
2022-12-25T11:06:22.277Z,22.32
2022-12-25T11:09:02.830Z,22.10
2022-12-25T11:11:32.913Z,21.37
2022-12-25T11:14:06.149Z,20.16
2022-12-25T11:16:42.431Z,20.07
2022-12-25T11:19:31.212Z,19.68
2022-12-25T11:21:59.906Z,19.47
2022-12-25T11:24:32.571Z,22.98
2022-12-25T11:27:04.236Z,22.91
2022-12-25T11:29:37.485Z,22.21
2022-12-25T11:32:08.571Z,21.44
2022-12-25T11:34:38.765Z,22.90
2022-12-25T11:37:17.791Z,25.42
2022-12-25T11:39:45.316Z,24.85
2022-12-25T11:42:21.473Z,24.73
2022-12-25T11:45:09.530Z,25.85
2022-12-25T11:47:41.606Z,25.19
2022-12-25T11:50:26.525Z,25.62
2022-12-25T11:53:01.749Z,27.11
2022-12-25T11:55:37.032Z,27.29
2022-12-25T11:58:11.676Z,28.04
2022-12-25T12:00:53.549Z,26.63
2022-12-25T12:03:32.260Z,24.83
2022-12-25T12:06:10.241Z,26.26
2022-12-25T12:08:41.492Z,27.45
2022-12-25T12:11:18.341Z,27.71
2022-12-25T12:14:11.034Z,26.27
2022-12-25T12:16:42.561Z,26.79
2022-12-25T12:19:37.329Z,26.78
2022-12-25T12:22:07.692Z,28.83
2022-12-25T12:24:37.422Z,30.41
2022-12-25T12:27:36.043Z,31.92
2022-12-25T12:30:07.526Z,31.42
2022-12-25T12:32:48.288Z,31.98
2022-12-25T12:35:21.717Z,33.40
2022-12-25T12:37:57.791Z,36.08
2022-12-25T12:40:50.498Z,32.13
2022-12-25T12:43:23.767Z,32.25
2022-12-25T12:46:23.030Z,35.32
2022-12-25T12:49:12.692Z,32.44
2022-12-25T12:51:42.399Z,33.49
2022-12-25T12:54:25.005Z,33.04
2022-12-25T12:57:05.342Z,33.69
2022-12-25T12:59:50.249Z,34.53
2022-12-25T13:02:39.037Z,31.59
2022-12-25T13:05:16.043Z,31.86
2022-12-25T13:07:45.999Z,32.57
2022-12-25T13:10:13.100Z,33.28
2022-12-25T13:12:52.863Z,33.71
2022-12-25T13:15:21.129Z,33.47
2022-12-25T13:17:50.432Z,33.10
2022-12-25T13:20:30.524Z,33.93
2022-12-25T13:23:05.599Z,33.85
2022-12-25T13:25:32.936Z,33.95
2022-12-25T13:28:00.116Z,32.34
2022-12-25T13:30:32.687Z,32.40
2022-12-25T13:33:05.513Z,31.38
2022-12-25T13:35:38.464Z,32.38
2022-12-25T13:38:10.672Z,34.39
2022-12-25T13:40:59.775Z,33.20
2022-12-25T13:43:27.488Z,32.79
2022-12-25T13:45:59.628Z,33.56
2022-12-25T13:48:32.271Z,33.39
2022-12-25T13:51:13.132Z,35.04
2022-12-25T13:53:40.224Z,34.53
2022-12-25T13:56:11.237Z,33.25
2022-12-25T13:58:48.889Z,33.81
2022-12-25T14:01:21.019Z,35.53
2022-12-25T14:06:46.262Z,34.48
2022-12-25T14:09:19.000Z,34.40
2022-12-25T14:11:49.893Z,34.54
2022-12-25T14:14:22.614Z,33.96
2022-12-25T14:16:54.250Z,32.93
2022-12-25T14:19:32.677Z,34.04
2022-12-25T14:22:07.735Z,34.27
2022-12-25T14:24:35.331Z,33.80
2022-12-25T14:27:17.600Z,33.70
2022-12-25T14:29:45.919Z,33.47
2022-12-25T14:32:24.546Z,33.47
2022-12-25T14:34:56.365Z,33.25
2022-12-25T14:37:25.644Z,35.21
2022-12-25T14:40:15.833Z,34.74
2022-12-25T14:42:45.543Z,34.72
2022-12-25T14:45:29.132Z,37.12
2022-12-25T14:48:03.898Z,38.08
2022-12-25T14:50:34.045Z,37.31
2022-12-25T14:53:01.591Z,38.18
2022-12-25T14:55:35.236Z,36.77
2022-12-25T14:58:05.193Z,39.10
2022-12-25T15:00:35.343Z,38.25
2022-12-25T15:03:03.934Z,39.39
2022-12-25T15:05:40.262Z,39.83
2022-12-25T15:08:16.676Z,39.14
2022-12-25T15:11:01.578Z,40.53
2022-12-25T15:13:29.552Z,41.71
2022-12-25T15:15:56.686Z,42.18
2022-12-25T15:18:25.183Z,42.36
2022-12-25T15:20:57.135Z,41.54
2022-12-25T15:23:25.611Z,41.64
2022-12-25T15:25:52.818Z,41.02
2022-12-25T15:28:24.295Z,41.71
2022-12-25T15:30:59.093Z,43.35
2022-12-25T15:33:42.228Z,45.11
2022-12-25T15:36:18.747Z,43.75
2022-12-25T15:38:46.062Z,44.45
2022-12-25T15:41:49.893Z,46.28
2022-12-25T15:44:34.258Z,49.25
2022-12-25T15:47:01.286Z,50.29
2022-12-25T15:49:30.211Z,50.30
2022-12-25T15:51:58.860Z,50.59
2022-12-25T15:54:26.041Z,49.67
2022-12-25T15:56:55.026Z,50.69
2022-12-25T15:59:22.568Z,49.40
2022-12-25T16:01:53.404Z,50.64
2022-12-25T16:04:26.748Z,49.47
2022-12-25T16:06:56.320Z,49.75
2022-12-25T16:09:27.814Z,49.37
2022-12-25T16:11:56.095Z,49.59
2022-12-25T16:14:25.572Z,49.61
2022-12-25T16:16:52.556Z,50.36
2022-12-25T16:19:22.164Z,52.16
2022-12-25T16:21:54.261Z,52.15
2022-12-25T16:24:22.541Z,52.24
2022-12-25T16:26:55.256Z,51.14
2022-12-25T16:29:22.977Z,51.22
2022-12-25T16:31:52.273Z,52.11
2022-12-25T16:34:25.019Z,52.24
2022-12-25T16:36:56.615Z,53.60
2022-12-25T16:39:23.892Z,52.64
2022-12-25T16:41:53.474Z,53.33
2022-12-25T16:44:20.545Z,54.17
2022-12-25T16:46:51.555Z,54.43
2022-12-25T16:49:21.598Z,53.87
2022-12-25T16:51:51.822Z,56.00
2022-12-25T16:54:21.517Z,54.94
2022-12-25T16:59:36.239Z,56.21
2022-12-25T17:02:03.565Z,56.43
2022-12-25T17:04:38.281Z,56.78
2022-12-25T17:07:12.399Z,56.04
2022-12-25T17:09:52.865Z,57.97
2022-12-25T17:12:23.172Z,56.41
2022-12-25T17:14:51.187Z,58.35
2022-12-25T17:17:18.410Z,58.50
2022-12-25T17:19:45.442Z,57.93
2022-12-25T17:22:14.592Z,56.98
2022-12-25T17:24:45.313Z,56.92
2022-12-25T17:27:18.285Z,58.25
2022-12-25T17:29:48.771Z,58.47
2022-12-25T17:32:15.826Z,59.84
2022-12-25T17:34:42.882Z,60.08
2022-12-25T17:37:09.980Z,61.32
2022-12-25T17:39:37.057Z,60.96
2022-12-25T17:42:07.783Z,61.27
2022-12-25T17:44:35.908Z,61.90
2022-12-25T17:47:08.094Z,60.94
2022-12-25T17:49:37.707Z,61.73
2022-12-25T17:52:04.742Z,61.80
2022-12-25T17:54:31.791Z,62.77
2022-12-25T17:57:07.947Z,62.98
2022-12-25T17:59:41.357Z,63.38
2022-12-25T18:02:16.332Z,62.25
2022-12-25T18:04:47.473Z,62.21
2022-12-25T18:07:14.684Z,60.71
2022-12-25T18:09:52.349Z,60.83
2022-12-25T18:12:19.404Z,61.84
2022-12-25T18:14:46.444Z,62.39
2022-12-25T18:17:14.095Z,60.54
2022-12-25T18:19:44.366Z,61.40
2022-12-25T18:22:13.928Z,62.10
2022-12-25T18:24:44.120Z,62.76
2022-12-25T18:27:14.385Z,62.23
2022-12-25T18:29:41.507Z,62.16
2022-12-25T18:32:09.373Z,62.16
2022-12-25T18:34:36.469Z,62.10
2022-12-25T18:37:03.671Z,62.30
2022-12-25T18:39:41.969Z,62.74
2022-12-25T18:42:37.363Z,62.22
2022-12-25T18:45:07.975Z,62.17
2022-12-25T18:47:35.581Z,61.66
2022-12-25T18:50:02.532Z,61.87
2022-12-25T18:52:48.000Z,62.06
2022-12-25T18:55:16.694Z,60.92
2022-12-25T18:57:45.772Z,61.10
2022-12-25T19:00:12.877Z,60.37
2022-12-25T19:02:40.202Z,59.97
2022-12-25T19:05:18.006Z,59.97
2022-12-25T19:07:47.362Z,59.40
2022-12-25T19:15:47.963Z,59.54
2022-12-25T19:18:18.747Z,59.34
2022-12-25T19:20:46.923Z,59.02
2022-12-25T19:23:15.532Z,59.10
2022-12-25T19:25:59.557Z,58.95
2022-12-25T19:28:36.251Z,58.58
2022-12-25T19:31:08.269Z,58.37
2022-12-25T19:33:43.136Z,58.65
2022-12-25T19:39:22.903Z,57.99
2022-12-25T19:41:57.981Z,58.12
2022-12-25T19:44:32.671Z,57.74
2022-12-25T19:47:09.252Z,57.70
2022-12-25T19:50:04.257Z,57.70
2022-12-25T19:52:42.988Z,57.67
2022-12-25T19:55:23.714Z,57.33
2022-12-25T19:57:51.685Z,57.41
2022-12-25T20:00:24.278Z,56.75
2022-12-25T20:05:57.992Z,57.10
2022-12-25T20:08:25.374Z,57.06
2022-12-25T20:10:53.530Z,56.78
2022-12-25T20:13:27.625Z,56.53
2022-12-25T20:16:09.191Z,56.45
2022-12-25T20:18:51.788Z,56.45
2022-12-25T20:21:24.849Z,56.58
2022-12-25T20:24:02.513Z,56.39
2022-12-25T20:26:35.409Z,55.86
2022-12-25T20:29:18.489Z,56.14
2022-12-25T20:31:47.565Z,55.98
2022-12-25T20:34:20.610Z,56.01
2022-12-25T20:36:53.352Z,55.97
2022-12-25T20:39:29.465Z,56.43
2022-12-25T20:42:02.323Z,56.49
2022-12-25T20:44:35.006Z,56.20
2022-12-25T20:47:05.837Z,56.08
2022-12-25T20:49:43.057Z,55.60
2022-12-25T20:52:20.783Z,56.13
2022-12-25T20:54:50.228Z,56.03
2022-12-25T20:57:23.489Z,55.95
2022-12-25T20:59:53.457Z,56.42
2022-12-25T21:02:35.467Z,56.00
2022-12-25T21:05:08.145Z,56.12
2022-12-25T21:07:35.599Z,56.52
2022-12-25T21:10:02.754Z,56.83
2022-12-25T21:12:30.648Z,56.68
2022-12-25T21:14:57.727Z,56.23
2022-12-25T21:17:24.845Z,56.22
2022-12-25T21:19:51.860Z,56.30
2022-12-25T21:25:55.547Z,56.13
2022-12-25T21:28:30.365Z,56.29
2022-12-25T21:31:06.674Z,56.47
2022-12-25T21:33:55.212Z,56.80
2022-12-25T21:36:35.588Z,56.64
2022-12-25T21:39:14.591Z,56.57
2022-12-25T21:44:30.518Z,56.11
2022-12-25T21:47:02.670Z,56.54
2022-12-25T21:49:56.600Z,56.51
2022-12-25T21:52:32.882Z,56.36
2022-12-25T21:55:06.097Z,56.23
2022-12-25T21:57:33.238Z,56.04
2022-12-25T22:00:18.176Z,55.33
2022-12-25T22:02:53.951Z,54.22
2022-12-25T22:08:35.316Z,52.30
2022-12-25T22:11:04.504Z,51.06
2022-12-25T22:13:53.013Z,50.95
2022-12-25T22:16:49.742Z,50.93
2022-12-25T22:19:45.142Z,50.03
2022-12-25T22:22:22.975Z,50.14
2022-12-25T22:25:01.587Z,50.79
2022-12-25T22:27:40.758Z,49.76
2022-12-25T22:30:15.027Z,48.56
2022-12-25T22:32:50.712Z,48.51
2022-12-25T22:35:21.513Z,48.72
2022-12-25T22:37:52.294Z,48.77
2022-12-25T22:40:22.941Z,48.52
2022-12-25T22:42:54.620Z,48.08
2022-12-25T22:45:21.621Z,47.84
2022-12-25T22:47:52.303Z,47.23
2022-12-25T22:50:22.321Z,47.32
2022-12-25T22:53:06.553Z,47.07
2022-12-25T22:55:42.669Z,47.52
2022-12-25T22:58:15.692Z,46.82
2022-12-25T23:00:50.445Z,47.03
2022-12-25T23:03:20.516Z,46.82
2022-12-25T23:05:55.701Z,46.98
2022-12-25T23:08:26.819Z,47.04
2022-12-25T23:11:03.814Z,46.92
2022-12-25T23:14:00.928Z,46.79
2022-12-25T23:19:45.272Z,47.25
2022-12-25T23:22:42.027Z,46.53
2022-12-25T23:25:33.757Z,46.57
2022-12-25T23:28:15.050Z,46.76
2022-12-25T23:30:44.366Z,46.07
2022-12-25T23:33:13.594Z,46.64
2022-12-25T23:35:44.596Z,46.72
2022-12-25T23:38:13.792Z,46.87
2022-12-25T23:40:41.094Z,46.78
2022-12-25T23:43:13.219Z,46.55
2022-12-25T23:45:45.321Z,46.99
2022-12-25T23:48:15.787Z,46.83
2022-12-25T23:50:56.627Z,47.12
2022-12-25T23:53:26.359Z,46.95
2022-12-25T23:55:55.876Z,46.74
2022-12-25T23:58:30.553Z,46.82
